Time;durP1;ratioP1;P1;durP2;ratioP2;P2;SDS_P1;SDS_P2;PMS_P1;PMS_P2;Temp;Humidity;BMP_temperature;BMP_pressure;BME280_temperature;BME280_humidity;BME280_pressure;Samples;Min_cycle;Max_cycle;Signal;HPM_P1;HPM_P2
2022/12/16 00:01:05;;;;;;;15.90;12.20;;;9.40;99.90;;;;;;5069574;28;20036;-86
2022/12/16 00:03:30;;;;;;;17.17;12.57;;;9.50;99.90;;;;;;5069910;28;20028;-86
2022/12/16 00:05:56;;;;;;;17.08;12.18;;;9.50;99.90;;;;;;5069428;28;20035;-86
2022/12/16 00:08:22;;;;;;;16.33;11.90;;;9.50;99.90;;;;;;5069739;28;20485;-86
2022/12/16 00:10:54;;;;;;;18.13;13.00;;;9.50;99.90;;;;;;5072046;28;20097;-85
2022/12/16 00:13:19;;;;;;;19.65;11.63;;;9.50;99.90;;;;;;5068672;28;20037;-85
2022/12/16 00:15:45;;;;;;;16.83;12.23;;;9.60;99.90;;;;;;5067889;28;20028;-86
2022/12/16 00:18:12;;;;;;;18.08;11.90;;;9.50;99.90;;;;;;5068607;28;20036;-86
2022/12/16 00:20:52;;;;;;;16.70;12.10;;;9.50;99.90;;;;;;5070147;28;20524;-86
2022/12/16 00:23:18;;;;;;;17.83;12.43;;;9.50;99.90;;;;;;5072970;28;20143;-86
2022/12/16 00:25:46;;;;;;;15.52;11.52;;;9.60;99.90;;;;;;5070013;28;20016;-86
2022/12/16 00:28:13;;;;;;;16.92;12.25;;;9.60;99.90;;;;;;5069846;28;20021;-85
2022/12/16 00:30:40;;;;;;;18.15;12.27;;;9.60;99.90;;;;;;5071202;28;20512;-86
2022/12/16 00:33:06;;;;;;;13.57;10.68;;;9.60;99.90;;;;;;5067855;28;20540;-88
2022/12/16 00:35:31;;;;;;;17.77;12.45;;;9.60;99.90;;;;;;5069750;28;20028;-86
2022/12/16 00:37:57;;;;;;;18.45;13.02;;;9.50;99.90;;;;;;5069111;28;20115;-87
2022/12/16 00:40:24;;;;;;;19.02;12.70;;;9.50;99.90;;;;;;5089004;28;20557;-87
2022/12/16 00:42:49;;;;;;;17.17;11.45;;;9.50;99.90;;;;;;5077692;28;20029;-87
2022/12/16 00:45:15;;;;;;;17.17;13.13;;;9.50;99.90;;;;;;5071241;28;20504;-87
2022/12/16 00:47:41;;;;;;;17.70;12.48;;;9.50;99.90;;;;;;5074553;28;20060;-87
2022/12/16 00:50:07;;;;;;;16.85;12.13;;;9.50;99.90;;;;;;5069076;28;20025;-87
2022/12/16 00:52:33;;;;;;;17.73;11.80;;;9.50;99.90;;;;;;5073176;28;20525;-87
2022/12/16 00:54:59;;;;;;;15.88;11.45;;;9.60;99.90;;;;;;5074186;28;20103;-87
2022/12/16 00:57:25;;;;;;;16.05;12.10;;;9.60;99.90;;;;;;5074263;28;20551;-87
2022/12/16 00:59:51;;;;;;;14.90;11.15;;;9.70;99.90;;;;;;5074028;28;20103;-87
2022/12/16 01:02:16;;;;;;;18.90;12.73;;;9.70;99.90;;;;;;5074284;28;20111;-87
2022/12/16 01:04:42;;;;;;;16.10;11.25;;;9.70;99.90;;;;;;5073900;28;20101;-87
2022/12/16 01:07:08;;;;;;;16.67;11.68;;;9.70;99.90;;;;;;5074205;28;20024;-87
2022/12/16 01:09:34;;;;;;;14.85;10.68;;;9.70;99.90;;;;;;5073984;28;20025;-88
2022/12/16 01:12:06;;;;;;;15.00;11.32;;;9.60;99.90;;;;;;5075206;28;20029;-88
2022/12/16 01:14:31;;;;;;;14.80;11.20;;;9.70;99.90;;;;;;5073724;28;20020;-88
2022/12/16 01:16:57;;;;;;;14.75;10.50;;;9.60;99.90;;;;;;5074046;28;20567;-88
2022/12/16 01:19:23;;;;;;;13.98;10.68;;;9.50;99.90;;;;;;5073555;28;20033;-87
2022/12/16 01:21:49;;;;;;;12.55;10.38;;;9.60;99.90;;;;;;5073981;28;20505;-87
2022/12/16 01:24:14;;;;;;;14.18;10.57;;;9.60;99.90;;;;;;5073588;28;20505;-87
2022/12/16 01:26:40;;;;;;;13.55;10.20;;;9.50;99.90;;;;;;5078510;28;20041;-87
2022/12/16 01:29:06;;;;;;;14.25;9.95;;;9.50;99.90;;;;;;5073727;28;20509;-88
2022/12/16 01:31:31;;;;;;;15.23;10.38;;;9.50;99.90;;;;;;5073564;28;20028;-88
2022/12/16 01:33:57;;;;;;;12.80;9.57;;;9.60;99.90;;;;;;5073321;28;20101;-88
2022/12/16 01:36:26;;;;;;;13.52;10.20;;;9.60;99.90;;;;;;5078607;28;20558;-88
2022/12/16 01:38:51;;;;;;;12.27;9.65;;;9.60;99.90;;;;;;5073380;28;20502;-88
2022/12/16 01:41:17;;;;;;;12.20;9.98;;;9.60;99.90;;;;;;5072962;28;20043;-88
2022/12/16 01:43:45;;;;;;;15.43;9.57;;;9.70;99.90;;;;;;5072686;28;20024;-88
2022/12/16 01:46:13;;;;;;;13.88;10.43;;;9.70;99.90;;;;;;5073226;28;20024;-88
2022/12/16 01:48:57;;;;;;;13.02;9.63;;;9.70;99.90;;;;;;5073184;28;20020;-88
2022/12/16 01:51:41;;;;;;;13.25;9.57;;;9.70;99.90;;;;;;5072977;28;20533;-87
2022/12/16 01:54:35;;;;;;;13.63;10.27;;;9.60;99.90;;;;;;5072585;28;20036;-87
2022/12/16 01:57:16;;;;;;;13.30;9.95;;;9.60;99.90;;;;;;5072387;28;20063;-87
2022/12/16 01:59:45;;;;;;;12.70;9.83;;;9.60;99.90;;;;;;5072518;28;20032;-87
2022/12/16 02:02:12;;;;;;;13.55;10.45;;;9.70;99.90;;;;;;5072591;28;20361;-87
2022/12/16 02:05:19;;;;;;;12.48;9.15;;;9.70;99.90;;;;;;5072009;28;20171;-87
2022/12/16 02:07:29;;;;;;;;;;;9.70;99.90;;;;;;5072985;28;20475;-87
2022/12/16 02:09:55;;;;;;;15.00;10.30;;;9.70;99.90;;;;;;5080084;28;20002;-87
2022/12/16 02:12:31;;;;;;;13.98;10.27;;;9.70;99.90;;;;;;5079312;28;20090;-87
2022/12/16 02:15:16;;;;;;;12.43;9.95;;;9.60;99.90;;;;;;5072244;28;20058;-87
2022/12/16 02:18:07;;;;;;;12.57;10.02;;;9.40;99.90;;;;;;5072357;28;20032;-87
2022/12/16 02:21:04;;;;;;;10.95;8.80;;;9.40;99.90;;;;;;5074125;28;20025;-88
2022/12/16 02:23:54;;;;;;;11.85;9.07;;;9.40;99.90;;;;;;5085751;28;20073;-88
2022/12/16 02:26:29;;;;;;;12.10;9.63;;;9.40;99.90;;;;;;5088066;28;20120;-88
2022/12/16 02:29:00;;;;;;;13.40;9.80;;;9.40;99.90;;;;;;5071564;28;20017;-87
2022/12/16 02:31:53;;;;;;;11.60;8.85;;;9.50;99.90;;;;;;5071629;28;20029;-87
2022/12/16 02:34:28;;;;;;;12.25;9.15;;;9.50;99.90;;;;;;5061069;28;20040;-87
2022/12/16 02:37:11;;;;;;;10.57;8.45;;;9.40;99.90;;;;;;5071840;28;20040;-87
2022/12/16 02:39:41;;;;;;;11.23;8.70;;;9.50;99.90;;;;;;5072059;28;20027;-87
2022/12/16 02:42:22;;;;;;;11.77;8.88;;;9.50;99.90;;;;;;5062865;28;20103;-87
2022/12/16 02:45:02;;;;;;;12.13;9.38;;;9.60;99.90;;;;;;5071463;28;20042;-87
2022/12/16 02:47:29;;;;;;;11.32;8.68;;;9.60;99.90;;;;;;5072660;28;20028;-87
2022/12/16 02:49:55;;;;;;;12.02;9.57;;;9.60;99.90;;;;;;5071201;28;20075;-87
2022/12/16 02:52:28;;;;;;;11.70;9.30;;;9.60;99.90;;;;;;5071727;28;20486;-88
2022/12/16 02:55:00;;;;;;;10.65;8.63;;;9.60;99.90;;;;;;5071511;28;20037;-88
2022/12/16 02:57:26;;;;;;;11.63;8.52;;;9.60;99.90;;;;;;5071338;28;20500;-88
2022/12/16 03:00:03;;;;;;;10.63;8.40;;;9.70;99.90;;;;;;5070998;28;20354;-87
2022/12/16 03:02:35;;;;;;;9.35;7.80;;;9.70;99.90;;;;;;5071299;28;20099;-88
2022/12/16 03:05:16;;;;;;;11.30;9.15;;;9.70;99.90;;;;;;5058881;28;20079;-88
2022/12/16 03:07:43;;;;;;;9.70;8.18;;;9.70;99.90;;;;;;5070136;28;20048;-88
2022/12/16 03:10:16;;;;;;;9.93;8.35;;;9.70;99.90;;;;;;5071407;28;20051;-88
2022/12/16 03:12:44;;;;;;;12.23;8.73;;;9.70;99.90;;;;;;5071258;28;20059;-87
2022/12/16 03:15:14;;;;;;;12.00;9.13;;;9.70;99.90;;;;;;5070731;28;20517;-87
2022/12/16 03:17:41;;;;;;;11.50;7.97;;;9.70;99.90;;;;;;5071536;28;20110;-87
2022/12/16 03:20:26;;;;;;;11.45;8.57;;;9.70;99.90;;;;;;5070650;28;20028;-87
2022/12/16 03:22:56;;;;;;;10.13;8.40;;;9.70;99.90;;;;;;5071516;28;20082;-86
2022/12/16 03:25:23;;;;;;;10.90;8.07;;;9.70;99.90;;;;;;5070743;28;20036;-87
2022/12/16 03:28:15;;;;;;;10.10;8.45;;;9.70;99.90;;;;;;5074370;28;20537;-88
2022/12/16 03:30:46;;;;;;;10.30;7.47;;;9.70;99.90;;;;;;5071047;28;20546;-88
2022/12/16 03:33:38;;;;;;;10.30;7.97;;;9.60;99.90;;;;;;5070660;28;20029;-87
2022/12/16 03:36:15;;;;;;;9.52;7.40;;;9.60;99.90;;;;;;5058375;28;20039;-87
2022/12/16 03:38:42;;;;;;;8.73;7.32;;;9.50;99.90;;;;;;5070454;28;20059;-87
2022/12/16 03:41:08;;;;;;;10.10;7.75;;;9.60;99.90;;;;;;5070370;28;20024;-87
2022/12/16 03:43:35;;;;;;;10.05;7.72;;;9.60;99.90;;;;;;5070353;28;20025;-87
2022/12/16 03:46:05;;;;;;;10.18;7.60;;;9.60;99.90;;;;;;5070105;28;20028;-87
2022/12/16 03:48:32;;;;;;;8.20;6.18;;;9.60;99.90;;;;;;5070928;28;20036;-87
2022/12/16 03:50:58;;;;;;;8.48;7.38;;;9.60;99.90;;;;;;5070208;28;20032;-87
2022/12/16 03:53:25;;;;;;;8.85;6.88;;;9.50;99.90;;;;;;5070882;28;20085;-86
2022/12/16 03:55:52;;;;;;;10.77;7.38;;;9.60;99.90;;;;;;5070326;28;20032;-87
2022/12/16 03:58:18;;;;;;;7.78;6.50;;;9.60;99.90;;;;;;5079136;28;20036;-86
2022/12/16 04:00:43;;;;;;;9.45;7.28;;;9.60;99.90;;;;;;5070432;28;20029;-86
2022/12/16 04:03:09;;;;;;;8.65;7.05;;;9.70;99.90;;;;;;5070421;28;20020;-87
2022/12/16 04:05:35;;;;;;;9.80;7.32;;;9.60;99.90;;;;;;5070195;28;20435;-87
2022/12/16 04:08:00;;;;;;;8.93;7.10;;;9.60;99.90;;;;;;5070350;28;20413;-88
2022/12/16 04:24:18;;;;;;;8.75;6.60;;;9.70;99.90;;;;;;5070464;28;20035;-88
2022/12/16 04:29:28;;;;;;;7.53;6.18;;;9.70;99.90;;;;;;5058552;28;20070;-87
2022/12/16 04:31:54;;;;;;;8.38;6.57;;;9.70;99.90;;;;;;5071087;28;20029;-87
2022/12/16 04:34:28;;;;;;;7.38;6.10;;;9.70;99.90;;;;;;5081794;28;20064;-88
